createdAt,value
2017-11-22T00:00:21.524Z,99.99
2017-11-22T00:01:34.077Z,99.99
2017-11-22T00:02:46.618Z,99.99
2017-11-22T00:03:59.133Z,99.99
2017-11-22T00:05:12.144Z,99.99
2017-11-22T00:06:24.182Z,99.99
2017-11-22T00:07:37.161Z,99.99
2017-11-22T00:08:50.126Z,99.99
2017-11-22T00:10:03.179Z,99.99
2017-11-22T00:11:15.216Z,99.99
2017-11-22T00:12:28.285Z,99.99
2017-11-22T00:13:41.223Z,99.99
2017-11-22T00:14:53.753Z,99.99
2017-11-22T00:16:06.291Z,99.99
2017-11-22T00:17:19.305Z,99.99
2017-11-22T00:18:32.308Z,99.99
2017-11-22T00:19:44.852Z,99.99
2017-11-22T00:20:57.865Z,99.99
2017-11-22T00:22:10.390Z,99.99
2017-11-22T00:23:22.934Z,99.99
2017-11-22T00:24:35.938Z,99.99
2017-11-22T00:25:48.480Z,99.99
2017-11-22T00:27:01.020Z,99.99
2017-11-22T00:28:14.045Z,99.99
2017-11-22T00:29:27.045Z,99.99
2017-11-22T00:30:40.076Z,99.99
2017-11-22T00:31:53.076Z,99.99
2017-11-22T00:33:06.102Z,99.99
2017-11-22T00:34:19.145Z,99.99
2017-11-22T00:35:32.097Z,99.99
2017-11-22T00:36:45.099Z,99.99
2017-11-22T00:37:57.632Z,99.99
2017-11-22T00:39:10.656Z,99.99
2017-11-22T00:40:23.597Z,99.99
2017-11-22T00:41:36.621Z,99.99
2017-11-22T00:42:49.644Z,99.99
2017-11-22T00:44:02.658Z,99.99
2017-11-22T00:45:15.641Z,99.99
2017-11-22T00:46:28.642Z,99.99
2017-11-22T00:47:41.205Z,99.99
2017-11-22T00:48:53.723Z,99.99
2017-11-22T00:50:06.729Z,99.99
2017-11-22T00:51:19.234Z,99.99
2017-11-22T00:52:32.234Z,99.99
2017-11-22T00:53:45.205Z,99.99
2017-11-22T00:54:58.243Z,99.99
2017-11-22T00:56:11.250Z,99.99
2017-11-22T00:57:24.263Z,99.99
2017-11-22T00:58:37.274Z,99.99
2017-11-22T00:59:50.272Z,99.99
2017-11-22T01:01:03.220Z,99.99
2017-11-22T01:02:16.218Z,99.99
2017-11-22T01:03:29.210Z,99.99
2017-11-22T01:04:42.167Z,99.99
2017-11-22T01:05:54.728Z,99.99
2017-11-22T01:07:07.230Z,99.99
2017-11-22T01:08:20.249Z,99.99
2017-11-22T01:09:33.283Z,99.99
2017-11-22T01:10:46.270Z,99.99
2017-11-22T01:11:59.295Z,99.99
2017-11-22T01:13:12.270Z,99.99
2017-11-22T01:14:25.300Z,99.99
2017-11-22T01:15:38.271Z,99.99
2017-11-22T01:16:51.466Z,99.99
2017-11-22T01:18:03.992Z,99.99
2017-11-22T01:19:16.511Z,99.99
2017-11-22T01:20:29.496Z,99.99
2017-11-22T01:21:42.500Z,99.99
2017-11-22T01:22:55.522Z,99.99
2017-11-22T01:24:08.053Z,99.99
2017-11-22T01:25:20.559Z,99.99
2017-11-22T01:26:33.094Z,99.99
2017-11-22T01:27:45.626Z,99.99
2017-11-22T01:28:58.604Z,99.99
2017-11-22T01:30:11.571Z,99.99
2017-11-22T01:31:24.077Z,99.99
2017-11-22T01:32:37.088Z,99.99
2017-11-22T01:33:49.623Z,99.99
2017-11-22T01:35:02.638Z,99.99
2017-11-22T01:36:14.722Z,99.99
2017-11-22T01:37:27.712Z,99.99
2017-11-22T01:38:40.199Z,99.99
2017-11-22T01:39:53.188Z,99.99
2017-11-22T01:41:06.235Z,99.99
2017-11-22T01:42:19.214Z,99.99
2017-11-22T01:43:32.227Z,99.99
2017-11-22T01:44:44.931Z,99.99
2017-11-22T01:45:57.902Z,99.99
2017-11-22T01:47:10.904Z,99.99
2017-11-22T01:48:23.496Z,99.99
2017-11-22T01:49:36.047Z,99.99
2017-11-22T01:50:49.037Z,99.99
2017-11-22T01:52:02.041Z,99.99
2017-11-22T01:53:15.023Z,99.99
2017-11-22T01:54:28.031Z,99.99
2017-11-22T01:55:41.002Z,99.99
2017-11-22T01:56:53.550Z,99.99
2017-11-22T01:58:06.528Z,99.99
2017-11-22T01:59:19.560Z,99.99
2017-11-22T02:00:32.552Z,99.99
2017-11-22T02:01:45.057Z,99.99
2017-11-22T02:02:58.059Z,99.99
2017-11-22T02:04:10.610Z,99.99
2017-11-22T02:05:23.640Z,99.99
2017-11-22T02:06:36.188Z,99.99
2017-11-22T02:07:49.194Z,99.99
2017-11-22T02:09:02.203Z,99.99
2017-11-22T02:10:15.269Z,99.99
2017-11-22T02:11:28.336Z,99.99
2017-11-22T02:12:41.333Z,99.99
2017-11-22T02:13:54.040Z,99.99
2017-11-22T02:15:07.010Z,99.99
2017-11-22T02:16:20.003Z,99.99
2017-11-22T02:17:32.965Z,99.99
2017-11-22T02:18:45.981Z,99.99
2017-11-22T02:19:58.501Z,99.99
2017-11-22T02:21:11.476Z,99.99
2017-11-22T02:22:23.082Z,99.99
2017-11-22T02:23:36.081Z,99.99
2017-11-22T02:24:49.080Z,99.99
2017-11-22T02:26:01.619Z,99.99
2017-11-22T02:27:14.624Z,99.99
2017-11-22T02:28:27.600Z,99.99
2017-11-22T02:29:40.586Z,99.99
2017-11-22T02:30:53.619Z,99.99
2017-11-22T02:32:06.173Z,99.99
2017-11-22T02:33:19.192Z,99.99
2017-11-22T02:34:32.191Z,99.99
2017-11-22T02:35:45.248Z,99.99
2017-11-22T02:36:57.799Z,99.99
2017-11-22T02:38:10.833Z,99.99
2017-11-22T02:39:23.843Z,99.99
2017-11-22T02:40:36.381Z,99.99
2017-11-22T02:41:49.415Z,99.99
2017-11-22T02:43:02.436Z,99.99
2017-11-22T02:44:15.037Z,99.99
2017-11-22T02:45:28.257Z,99.99
2017-11-22T02:46:41.262Z,99.99
2017-11-22T02:47:54.241Z,99.99
2017-11-22T02:49:07.295Z,99.99
2017-11-22T02:50:19.864Z,99.99
2017-11-22T02:51:32.413Z,99.99
2017-11-22T02:52:44.933Z,99.99
2017-11-22T02:53:57.964Z,99.99
2017-11-22T02:55:10.971Z,99.99
2017-11-22T02:56:23.954Z,99.99
2017-11-22T02:57:37.005Z,99.99
2017-11-22T02:58:50.038Z,99.99
2017-11-22T03:00:03.031Z,99.99
2017-11-22T03:01:16.052Z,99.99
2017-11-22T03:02:29.034Z,99.99
2017-11-22T03:03:42.003Z,99.99
2017-11-22T03:04:55.030Z,99.99
2017-11-22T03:06:07.574Z,99.99
2017-11-22T03:07:20.094Z,99.99
2017-11-22T03:08:32.972Z,99.99
2017-11-22T03:09:45.937Z,99.99
2017-11-22T03:10:58.922Z,99.99
2017-11-22T03:12:11.906Z,99.99
2017-11-22T03:13:24.904Z,99.99
2017-11-22T03:14:37.457Z,99.99
2017-11-22T03:15:50.477Z,99.99
2017-11-22T03:17:02.978Z,99.99
2017-11-22T03:18:15.994Z,99.99
2017-11-22T03:19:28.987Z,99.99
2017-11-22T03:20:41.946Z,99.99
2017-11-22T03:21:54.466Z,99.99
2017-11-22T03:23:06.979Z,99.99
2017-11-22T03:24:19.793Z,99.99
2017-11-22T03:25:32.799Z,99.99
2017-11-22T03:26:45.821Z,99.99
2017-11-22T03:27:58.808Z,99.99
2017-11-22T03:29:12.041Z,99.99
2017-11-22T03:30:25.009Z,99.99
2017-11-22T03:31:38.051Z,99.99
2017-11-22T03:32:51.086Z,99.99
2017-11-22T03:34:04.050Z,99.99
2017-11-22T03:35:17.066Z,99.99
2017-11-22T03:36:30.061Z,99.99
2017-11-22T03:37:43.085Z,99.99
2017-11-22T03:38:56.094Z,99.99
2017-11-22T03:40:09.114Z,99.99
2017-11-22T03:41:22.177Z,99.99
2017-11-22T03:42:35.214Z,99.99
2017-11-22T03:43:47.732Z,99.99
2017-11-22T03:45:00.699Z,99.99
2017-11-22T03:46:13.233Z,99.99
2017-11-22T03:47:26.275Z,99.99
2017-11-22T03:48:39.240Z,99.99
2017-11-22T03:49:52.222Z,99.99
2017-11-22T03:51:04.768Z,99.99
2017-11-22T03:52:17.793Z,99.99
2017-11-22T03:53:30.334Z,99.99
2017-11-22T03:54:42.884Z,99.99
2017-11-22T03:55:55.953Z,99.99
2017-11-22T03:57:08.983Z,99.99
2017-11-22T03:58:22.087Z,99.99
2017-11-22T03:59:35.099Z,99.99
2017-11-22T04:00:48.125Z,99.99
2017-11-22T04:02:01.100Z,99.99
2017-11-22T04:03:13.162Z,99.99
2017-11-22T04:04:24.981Z,99.99
2017-11-22T04:05:37.960Z,99.99
2017-11-22T04:06:51.148Z,99.99
2017-11-22T04:08:04.158Z,99.99
2017-11-22T04:09:17.138Z,99.99
2017-11-22T04:10:30.151Z,99.99
2017-11-22T04:11:43.134Z,99.99
2017-11-22T04:12:56.114Z,99.99
2017-11-22T04:14:09.129Z,99.99
2017-11-22T04:15:22.124Z,99.99
2017-11-22T04:16:34.666Z,99.99
2017-11-22T04:17:47.699Z,99.99
2017-11-22T04:19:00.695Z,99.99
2017-11-22T04:20:13.705Z,99.99
2017-11-22T04:21:26.674Z,99.99
2017-11-22T04:22:39.375Z,99.99
2017-11-22T04:23:52.343Z,99.99
2017-11-22T04:25:05.358Z,99.99
2017-11-22T04:26:18.312Z,99.99
2017-11-22T04:27:31.335Z,99.99
2017-11-22T04:28:43.839Z,99.99
2017-11-22T04:29:56.845Z,99.99
2017-11-22T04:31:09.817Z,99.99
2017-11-22T04:32:22.316Z,99.99
2017-11-22T04:33:35.296Z,99.99
2017-11-22T04:34:46.859Z,99.99
2017-11-22T04:35:59.893Z,99.99
2017-11-22T04:37:12.421Z,99.99
2017-11-22T04:38:24.886Z,99.99
2017-11-22T04:39:37.834Z,99.99
2017-11-22T04:40:50.353Z,99.99
2017-11-22T04:42:02.369Z,99.99
2017-11-22T04:43:14.908Z,99.99
2017-11-22T04:44:27.415Z,99.99
2017-11-22T04:45:40.421Z,99.99
2017-11-22T04:46:53.433Z,99.99
2017-11-22T04:48:06.535Z,99.99
2017-11-22T04:49:19.076Z,99.99
2017-11-22T04:50:32.071Z,99.99
2017-11-22T04:51:45.023Z,99.99
2017-11-22T04:52:58.049Z,99.99
2017-11-22T04:54:11.094Z,99.99
2017-11-22T04:55:23.176Z,99.99
2017-11-22T04:56:36.165Z,99.99
2017-11-22T04:57:49.134Z,99.99
2017-11-22T04:59:02.168Z,99.99
2017-11-22T05:00:15.430Z,99.99
2017-11-22T05:01:28.401Z,99.99
2017-11-22T05:02:41.373Z,99.99
2017-11-22T05:03:54.366Z,99.99
2017-11-22T05:05:07.332Z,99.99
2017-11-22T05:06:19.381Z,99.99
2017-11-22T05:07:32.349Z,99.99
2017-11-22T05:08:45.336Z,99.99
2017-11-22T05:09:58.427Z,99.99
2017-11-22T05:11:11.436Z,99.99
2017-11-22T05:12:24.446Z,99.99
2017-11-22T05:13:37.497Z,99.99
2017-11-22T05:14:50.498Z,99.99
2017-11-22T05:16:03.450Z,99.99
2017-11-22T05:17:16.476Z,99.99
2017-11-22T05:18:29.456Z,99.99
2017-11-22T05:19:42.472Z,99.99
2017-11-22T05:20:54.978Z,99.99
2017-11-22T05:22:07.959Z,99.99
2017-11-22T05:23:20.973Z,99.99
2017-11-22T05:24:33.962Z,99.99
2017-11-22T05:25:46.947Z,99.99
2017-11-22T05:26:59.936Z,99.99
2017-11-22T05:28:12.940Z,99.99
2017-11-22T05:29:25.910Z,99.99
2017-11-22T05:30:38.891Z,99.99
2017-11-22T05:31:51.883Z,99.99
2017-11-22T05:33:04.912Z,99.99
2017-11-22T05:34:17.905Z,99.99
2017-11-22T05:35:30.890Z,99.99
2017-11-22T05:36:44.090Z,99.99
2017-11-22T05:37:57.085Z,99.99
2017-11-22T05:39:10.049Z,99.99
2017-11-22T05:40:23.282Z,99.99
2017-11-22T05:41:36.283Z,99.99
2017-11-22T05:42:48.824Z,99.99
2017-11-22T05:44:01.802Z,99.99
2017-11-22T05:45:14.766Z,99.99
2017-11-22T05:46:27.747Z,99.99
2017-11-22T05:47:40.742Z,99.99
2017-11-22T05:48:53.763Z,99.99
2017-11-22T05:50:06.694Z,99.99
2017-11-22T05:51:19.736Z,99.99
2017-11-22T05:52:32.243Z,99.99
2017-11-22T05:53:45.193Z,99.99
2017-11-22T05:54:58.158Z,99.99
2017-11-22T05:56:10.669Z,99.99
2017-11-22T05:57:23.693Z,99.99
2017-11-22T05:58:36.247Z,99.99
2017-11-22T05:59:49.450Z,99.99
2017-11-22T06:01:01.934Z,99.99
2017-11-22T06:02:14.971Z,99.99
2017-11-22T06:03:27.999Z,99.99
2017-11-22T06:04:40.973Z,99.99
2017-11-22T06:05:53.957Z,99.99
2017-11-22T06:07:06.503Z,99.99
2017-11-22T06:08:19.045Z,99.99
2017-11-22T06:09:32.041Z,99.99
2017-11-22T06:10:43.666Z,99.99
2017-11-22T06:11:56.216Z,99.99
2017-11-22T06:13:08.814Z,99.99
2017-11-22T06:14:21.851Z,99.99
2017-11-22T06:15:34.788Z,99.99
2017-11-22T06:16:47.799Z,99.99
2017-11-22T06:18:00.789Z,99.99
2017-11-22T06:19:13.795Z,99.99
2017-11-22T06:20:25.840Z,99.99
2017-11-22T06:21:38.407Z,99.99
2017-11-22T06:22:51.395Z,99.99
2017-11-22T06:24:04.405Z,99.99
2017-11-22T06:25:17.421Z,99.99
2017-11-22T06:26:30.428Z,99.99
2017-11-22T06:27:42.948Z,99.99
2017-11-22T06:28:56.146Z,99.99
2017-11-22T06:30:07.723Z,99.99
2017-11-22T06:31:20.248Z,99.99
2017-11-22T06:32:33.237Z,99.99
2017-11-22T06:33:45.773Z,99.99
2017-11-22T06:34:58.745Z,99.99
2017-11-22T06:36:11.744Z,99.99
2017-11-22T06:37:24.715Z,99.99
2017-11-22T06:38:37.753Z,99.99
2017-11-22T06:39:50.725Z,99.99
2017-11-22T06:41:03.704Z,99.99
2017-11-22T06:42:16.219Z,99.99
2017-11-22T06:43:28.303Z,99.99
2017-11-22T06:44:40.858Z,99.99
2017-11-22T06:45:53.652Z,99.99
2017-11-22T06:47:06.648Z,99.99
2017-11-22T06:48:19.153Z,99.99
2017-11-22T06:49:32.176Z,99.99
2017-11-22T06:50:45.224Z,99.99
2017-11-22T06:51:57.762Z,99.99
2017-11-22T06:53:10.267Z,99.99
2017-11-22T06:54:22.793Z,99.99
2017-11-22T06:55:34.889Z,99.99
2017-11-22T06:56:47.860Z,99.99
2017-11-22T06:58:00.443Z,99.99
2017-11-22T06:59:13.623Z,99.99
2017-11-22T07:00:26.156Z,99.99
2017-11-22T07:01:39.166Z,99.99
2017-11-22T07:02:51.682Z,99.99
2017-11-22T07:04:04.686Z,99.99
2017-11-22T07:05:17.661Z,99.99
2017-11-22T07:06:30.644Z,99.99
2017-11-22T07:07:43.605Z,99.99
2017-11-22T07:08:56.614Z,99.99
2017-11-22T07:10:09.599Z,99.99
2017-11-22T07:11:21.640Z,99.99
2017-11-22T07:12:34.601Z,99.99
2017-11-22T07:13:47.108Z,99.99
2017-11-22T07:15:00.111Z,99.99
2017-11-22T07:16:44.327Z,99.99
2017-11-22T07:17:57.286Z,99.99
2017-11-22T07:19:10.279Z,99.99
2017-11-22T07:20:23.262Z,99.99
2017-11-22T07:21:36.221Z,99.99
2017-11-22T07:22:48.765Z,99.99
2017-11-22T07:24:01.833Z,99.99
2017-11-22T07:25:14.808Z,99.99
2017-11-22T07:26:27.814Z,99.99
2017-11-22T07:27:40.814Z,99.99
2017-11-22T07:28:53.375Z,99.99
2017-11-22T07:30:06.081Z,99.99
2017-11-22T07:31:18.610Z,99.99
2017-11-22T07:32:31.604Z,99.99
2017-11-22T07:33:44.548Z,99.99
2017-11-22T07:34:57.017Z,99.99
2017-11-22T07:36:09.802Z,99.99
2017-11-22T07:37:22.818Z,99.99
2017-11-22T07:38:35.786Z,99.99
2017-11-22T07:39:48.788Z,99.99
2017-11-22T07:41:01.767Z,99.99
2017-11-22T07:42:13.828Z,99.99
2017-11-22T07:43:26.817Z,99.99
2017-11-22T07:44:39.797Z,99.99
2017-11-22T07:45:52.791Z,99.99
2017-11-22T07:47:37.013Z,99.99
2017-11-22T07:48:50.019Z,99.99
2017-11-22T07:50:03.024Z,99.99
2017-11-22T07:51:15.084Z,99.99
2017-11-22T07:52:28.057Z,99.99
2017-11-22T07:53:41.011Z,99.99
2017-11-22T07:54:54.004Z,99.99
2017-11-22T07:56:07.009Z,99.99
2017-11-22T07:57:19.975Z,99.99
2017-11-22T07:58:32.488Z,99.99
2017-11-22T07:59:45.492Z,99.99
2017-11-22T08:00:58.076Z,99.99
2017-11-22T08:02:10.604Z,99.99
2017-11-22T08:03:23.594Z,99.99
2017-11-22T08:04:36.141Z,99.99
2017-11-22T08:05:48.184Z,99.99
2017-11-22T08:07:01.197Z,99.99
2017-11-22T08:08:13.764Z,99.99
2017-11-22T08:09:26.270Z,99.99
2017-11-22T08:11:10.452Z,99.99
2017-11-22T08:12:23.651Z,99.99
2017-11-22T08:13:36.670Z,99.99
2017-11-22T08:14:49.627Z,99.99
2017-11-22T08:16:02.601Z,99.99
2017-11-22T08:17:15.103Z,99.99
2017-11-22T08:18:28.097Z,99.99
2017-11-22T08:19:41.107Z,99.99
2017-11-22T08:20:54.105Z,99.99
2017-11-22T08:22:06.627Z,99.99
2017-11-22T08:23:19.609Z,99.99
2017-11-22T08:24:32.616Z,99.99
2017-11-22T08:25:45.161Z,99.99
2017-11-22T08:26:58.141Z,99.99
2017-11-22T08:28:11.147Z,99.99
2017-11-22T08:29:24.134Z,99.99
2017-11-22T08:30:36.879Z,99.99
2017-11-22T08:31:49.431Z,99.99
2017-11-22T08:33:02.414Z,99.99
2017-11-22T08:34:14.937Z,99.99
2017-11-22T08:35:27.930Z,99.99
2017-11-22T08:36:40.964Z,99.99
2017-11-22T08:37:53.606Z,99.99
2017-11-22T08:39:06.142Z,99.99
2017-11-22T08:40:18.199Z,99.99
2017-11-22T08:41:30.773Z,99.99
2017-11-22T08:42:43.748Z,99.99
2017-11-22T08:43:56.769Z,99.99
2017-11-22T08:45:09.307Z,99.99
2017-11-22T08:46:21.841Z,99.99
2017-11-22T08:47:34.851Z,99.99
2017-11-22T08:48:47.839Z,99.99
2017-11-22T08:50:00.936Z,99.99
2017-11-22T08:51:12.952Z,99.99
2017-11-22T08:52:25.932Z,99.99
2017-11-22T08:53:39.161Z,99.99
2017-11-22T08:54:51.730Z,99.99
2017-11-22T08:56:03.777Z,99.99
2017-11-22T08:57:16.786Z,99.99
2017-11-22T08:58:29.772Z,99.99
2017-11-22T08:59:42.773Z,99.99
2017-11-22T09:00:55.369Z,99.99
2017-11-22T09:02:08.382Z,99.99
2017-11-22T09:03:21.406Z,99.99
2017-11-22T09:04:34.370Z,99.99
2017-11-22T09:05:46.872Z,99.99
2017-11-22T09:06:59.827Z,99.99
2017-11-22T09:08:12.841Z,99.99
2017-11-22T09:09:25.847Z,99.99
2017-11-22T09:10:38.392Z,99.99
2017-11-22T09:11:50.928Z,99.99
2017-11-22T09:13:03.955Z,99.99
2017-11-22T09:14:16.477Z,99.99
2017-11-22T09:15:29.455Z,99.99
2017-11-22T09:16:42.433Z,99.99
2017-11-22T09:17:55.421Z,99.99
2017-11-22T09:19:08.438Z,99.99
2017-11-22T09:20:20.974Z,99.99
2017-11-22T09:21:33.944Z,99.99
2017-11-22T09:22:46.939Z,99.99
2017-11-22T09:23:59.867Z,99.99
2017-11-22T09:25:12.410Z,99.99
2017-11-22T09:26:25.424Z,99.99
2017-11-22T09:27:37.908Z,99.99
2017-11-22T09:28:50.471Z,99.99
2017-11-22T09:30:02.982Z,99.99
2017-11-22T09:31:15.039Z,99.99
2017-11-22T09:32:28.249Z,99.99
2017-11-22T09:33:40.755Z,99.99
2017-11-22T09:34:53.762Z,99.99
2017-11-22T09:36:05.362Z,99.99
2017-11-22T09:37:18.380Z,99.99
2017-11-22T09:38:30.861Z,99.99
2017-11-22T09:39:43.907Z,99.99
2017-11-22T09:40:56.941Z,99.99
2017-11-22T09:42:09.951Z,99.99
2017-11-22T09:43:22.988Z,99.99
2017-11-22T09:44:35.954Z,99.99
2017-11-22T09:45:48.944Z,99.99
2017-11-22T09:47:01.456Z,99.99
2017-11-22T09:48:14.004Z,99.99
2017-11-22T09:49:26.573Z,99.99
2017-11-22T09:50:39.547Z,99.99
2017-11-22T09:51:52.578Z,99.99
2017-11-22T09:53:05.137Z,99.99
2017-11-22T09:54:18.124Z,99.99
2017-11-22T09:55:31.117Z,99.99
2017-11-22T09:56:44.111Z,99.99
2017-11-22T09:57:56.615Z,99.99
2017-11-22T09:59:08.697Z,99.99
2017-11-22T10:00:21.222Z,99.99
2017-11-22T10:01:34.445Z,99.99
2017-11-22T10:02:47.012Z,99.99
2017-11-22T10:04:00.023Z,99.99
2017-11-22T10:05:12.569Z,99.99
2017-11-22T10:06:25.559Z,99.99
2017-11-22T10:07:38.542Z,99.99
2017-11-22T10:08:51.558Z,99.99
2017-11-22T10:10:04.559Z,99.99
2017-11-22T10:11:17.138Z,99.99
2017-11-22T10:12:29.866Z,99.99
2017-11-22T10:13:42.869Z,99.99
2017-11-22T10:14:55.804Z,99.99
2017-11-22T10:16:08.332Z,99.99
2017-11-22T10:17:20.860Z,99.99
2017-11-22T10:18:33.861Z,99.99
2017-11-22T10:19:46.400Z,99.99
2017-11-22T10:20:58.465Z,99.99
2017-11-22T10:22:10.068Z,99.99
2017-11-22T10:23:23.017Z,99.99
2017-11-22T10:24:36.201Z,99.99
2017-11-22T10:25:49.203Z,99.99
2017-11-22T10:27:02.217Z,99.99
2017-11-22T10:28:15.199Z,99.99
2017-11-22T10:29:28.212Z,99.99
2017-11-22T10:30:41.222Z,99.99
2017-11-22T10:31:54.198Z,99.99
2017-11-22T10:33:06.732Z,99.99
2017-11-22T10:34:19.721Z,99.99
2017-11-22T10:35:32.269Z,99.99
2017-11-22T10:36:44.801Z,99.99
2017-11-22T10:37:57.793Z,99.99
2017-11-22T10:39:10.764Z,99.99
2017-11-22T10:40:23.244Z,99.99
2017-11-22T10:41:35.314Z,99.99
2017-11-22T10:42:48.334Z,99.99
2017-11-22T10:44:01.337Z,99.99
2017-11-22T10:45:13.822Z,99.99
2017-11-22T10:46:26.816Z,99.99
2017-11-22T10:47:39.814Z,99.99
2017-11-22T10:48:52.786Z,99.99
2017-11-22T10:50:05.781Z,99.99
2017-11-22T10:51:18.334Z,99.99
2017-11-22T10:53:02.540Z,99.99
2017-11-22T10:54:15.539Z,99.99
2017-11-22T10:55:28.487Z,99.99
2017-11-22T10:56:41.007Z,99.99
2017-11-22T10:57:53.513Z,99.99
2017-11-22T10:59:06.462Z,99.99
2017-11-22T11:00:19.040Z,99.99
2017-11-22T11:01:32.020Z,99.99
2017-11-22T11:02:44.506Z,99.99
2017-11-22T11:03:57.514Z,99.99
2017-11-22T11:05:10.043Z,99.99
2017-11-22T11:06:22.587Z,99.99
2017-11-22T11:07:35.574Z,99.99
2017-11-22T11:08:48.143Z,99.99
2017-11-22T11:10:01.210Z,99.99
2017-11-22T11:11:13.716Z,99.99
2017-11-22T11:12:26.730Z,99.99
2017-11-22T11:13:40.054Z,99.99
2017-11-22T11:14:53.029Z,99.99
2017-11-22T11:16:06.076Z,99.99
2017-11-22T11:17:19.084Z,99.99
2017-11-22T11:18:32.106Z,99.99
2017-11-22T11:19:44.634Z,99.99
2017-11-22T11:20:56.695Z,99.99
2017-11-22T11:22:09.717Z,99.99
2017-11-22T11:23:22.709Z,99.99
2017-11-22T11:24:35.661Z,99.99
2017-11-22T11:25:48.863Z,99.99
2017-11-22T11:27:01.415Z,99.99
2017-11-22T11:28:14.420Z,99.99
2017-11-22T11:29:27.398Z,99.99
2017-11-22T11:30:39.917Z,99.99
2017-11-22T11:31:52.922Z,99.99
2017-11-22T11:33:05.897Z,99.99
2017-11-22T11:34:18.938Z,99.99
2017-11-22T11:35:31.954Z,99.99
2017-11-22T11:36:43.987Z,99.99
2017-11-22T11:37:56.511Z,99.99
2017-11-22T11:39:09.549Z,99.99
2017-11-22T11:40:22.545Z,99.99
2017-11-22T11:41:35.123Z,99.99
2017-11-22T11:42:48.188Z,99.99
2017-11-22T11:44:01.198Z,99.99
2017-11-22T11:45:13.714Z,99.99
2017-11-22T11:46:26.715Z,99.99
2017-11-22T11:47:39.491Z,99.99
2017-11-22T11:48:52.724Z,99.99
2017-11-22T11:50:05.268Z,99.99
2017-11-22T11:51:17.381Z,99.99
2017-11-22T11:52:29.425Z,99.99
2017-11-22T11:53:42.438Z,99.99
2017-11-22T11:54:55.434Z,99.99
2017-11-22T11:56:08.469Z,99.99
2017-11-22T11:57:21.456Z,99.99
2017-11-22T11:58:34.462Z,99.99
2017-11-22T11:59:47.465Z,99.99
2017-11-22T12:00:59.994Z,99.99
2017-11-22T12:02:12.526Z,99.99
2017-11-22T12:03:24.560Z,99.99
2017-11-22T12:04:37.167Z,99.99
2017-11-22T12:05:50.216Z,99.99
2017-11-22T12:07:02.764Z,99.99
2017-11-22T12:08:15.773Z,99.99
2017-11-22T12:09:28.736Z,99.99
2017-11-22T12:10:41.785Z,94.37
2017-11-22T12:11:53.853Z,90.44
2017-11-22T12:13:07.057Z,93.35
2017-11-22T12:14:19.133Z,95.97
2017-11-22T12:15:31.238Z,97.04
2017-11-22T12:16:43.779Z,99.99
2017-11-22T12:17:56.821Z,99.99
2017-11-22T12:19:08.423Z,99.99
2017-11-22T12:20:20.043Z,99.99
2017-11-22T12:21:32.564Z,99.99
2017-11-22T12:22:45.132Z,99.99
2017-11-22T12:23:58.133Z,99.99
2017-11-22T12:25:11.121Z,99.99
2017-11-22T12:26:23.658Z,99.99
2017-11-22T12:27:36.664Z,99.99
2017-11-22T12:28:49.261Z,99.99
2017-11-22T12:30:02.243Z,99.99
2017-11-22T12:31:13.848Z,99.99
2017-11-22T12:32:26.834Z,99.99
2017-11-22T12:33:39.798Z,99.99
2017-11-22T12:34:51.863Z,99.99
2017-11-22T12:36:04.836Z,99.99
2017-11-22T12:37:17.860Z,99.99
2017-11-22T12:38:30.809Z,99.99
2017-11-22T12:39:43.805Z,99.99
2017-11-22T12:40:56.814Z,99.99
2017-11-22T12:42:09.331Z,99.99
2017-11-22T12:43:21.826Z,99.99
2017-11-22T12:44:34.845Z,99.99
2017-11-22T12:45:47.886Z,99.99
2017-11-22T12:47:00.548Z,99.99
2017-11-22T12:48:13.682Z,99.99
2017-11-22T12:49:26.203Z,97.23
2017-11-22T12:50:38.745Z,96.6
2017-11-22T12:51:51.281Z,96.6
2017-11-22T12:53:04.479Z,95.59
2017-11-22T12:54:17.486Z,93.21
2017-11-22T12:55:30.727Z,92.44
2017-11-22T12:56:43.666Z,92.83
2017-11-22T12:57:56.214Z,92
2017-11-22T12:59:09.263Z,88.71
2017-11-22T13:00:22.304Z,87.98
2017-11-22T13:01:35.269Z,90.55
2017-11-22T13:02:47.853Z,93.65
2017-11-22T13:04:00.878Z,92.2
2017-11-22T13:05:13.892Z,90.9
2017-11-22T13:06:26.448Z,93.22
2017-11-22T13:07:39.255Z,91.86
2017-11-22T13:08:52.250Z,91.28
2017-11-22T13:10:04.782Z,90.41
2017-11-22T13:11:17.347Z,93.22
2017-11-22T13:12:30.322Z,90.94
2017-11-22T13:13:43.284Z,90.46
2017-11-22T13:14:56.315Z,88.47
2017-11-22T13:16:10.033Z,89.83
2017-11-22T13:17:23.026Z,90.36
2017-11-22T13:18:35.577Z,90.36
2017-11-22T13:19:48.586Z,90.46
2017-11-22T13:21:32.787Z,89.78
2017-11-22T13:22:45.818Z,89.53
2017-11-22T13:23:59.543Z,88.61
2017-11-22T13:25:13.270Z,87.84
2017-11-22T13:26:29.964Z,87.93
2017-11-22T13:27:42.970Z,84.35
2017-11-22T13:28:55.026Z,84.49
2017-11-22T13:30:07.090Z,87.45
2017-11-22T13:31:19.597Z,86.58
2017-11-22T13:32:32.088Z,88.18
2017-11-22T13:33:45.076Z,87.7
2017-11-22T13:34:57.139Z,88.91
2017-11-22T13:36:09.230Z,91.82
2017-11-22T13:37:22.242Z,89.83
2017-11-22T13:38:34.318Z,91.96
2017-11-22T13:39:47.337Z,90.56
2017-11-22T13:41:00.355Z,90.26
2017-11-22T13:42:12.897Z,90.84
2017-11-22T13:43:25.906Z,87.75
2017-11-22T13:44:38.917Z,88.43
2017-11-22T13:45:51.949Z,89.2
2017-11-22T13:47:04.020Z,91.82
2017-11-22T13:48:17.015Z,88.53
2017-11-22T13:49:29.516Z,89.88
2017-11-22T13:50:42.798Z,90.9
2017-11-22T13:51:55.842Z,93.08
2017-11-22T13:53:09.070Z,93.95
2017-11-22T13:54:22.087Z,93.66
2017-11-22T13:55:35.085Z,94.62
2017-11-22T13:56:48.118Z,92.11
2017-11-22T13:58:01.095Z,93.12
2017-11-22T13:59:13.662Z,91.38
2017-11-22T14:00:26.666Z,92.74
2017-11-22T14:01:39.640Z,90.32
2017-11-22T14:02:52.639Z,89.45
2017-11-22T14:04:05.700Z,90.9
2017-11-22T14:05:18.227Z,89.54
2017-11-22T14:06:31.226Z,90.22
2017-11-22T14:07:44.235Z,89.93
2017-11-22T14:08:57.202Z,89.88
2017-11-22T14:10:10.187Z,89.11
2017-11-22T14:11:23.180Z,90.12
2017-11-22T14:12:36.180Z,92.54
2017-11-22T14:13:49.183Z,91.24
2017-11-22T14:15:02.185Z,91.91
2017-11-22T14:16:15.170Z,92.59
2017-11-22T14:17:28.166Z,93.37
2017-11-22T14:18:41.208Z,95.1
2017-11-22T14:19:53.728Z,95.01
2017-11-22T14:21:06.898Z,94.91
2017-11-22T14:22:18.920Z,95.88
2017-11-22T14:23:31.483Z,93.37
2017-11-22T14:24:44.487Z,94.24
2017-11-22T14:25:56.579Z,95.25
2017-11-22T14:27:09.165Z,94.77
2017-11-22T14:28:22.206Z,93.23
2017-11-22T14:29:34.741Z,92.35
2017-11-22T14:30:47.251Z,92.01
2017-11-22T14:32:00.273Z,93.03
2017-11-22T14:33:12.817Z,92.55
2017-11-22T14:34:25.838Z,93.51
2017-11-22T14:35:38.836Z,93.51
2017-11-22T14:36:51.816Z,94.77
2017-11-22T14:38:04.420Z,95.2
2017-11-22T14:39:16.947Z,94.43
2017-11-22T14:40:29.978Z,95.49
2017-11-22T14:41:42.987Z,96.7
2017-11-22T14:42:55.540Z,97.96
2017-11-22T14:44:08.540Z,98.25
2017-11-22T14:45:21.600Z,96.84
2017-11-22T14:46:34.645Z,98
2017-11-22T14:47:47.191Z,98.3
2017-11-22T14:49:00.134Z,97.52
2017-11-22T14:50:12.687Z,97.91
2017-11-22T14:51:25.227Z,97.04
2017-11-22T14:52:37.788Z,95.25
2017-11-22T14:53:50.769Z,94.48
2017-11-22T14:55:04.000Z,95.83
2017-11-22T14:56:17.017Z,97.04
2017-11-22T14:57:30.002Z,96.94
2017-11-22T14:58:43.069Z,99.45
2017-11-22T14:59:55.682Z,99.99
2017-11-22T15:01:08.703Z,99.99
2017-11-22T15:02:21.235Z,99.99
2017-11-22T15:03:34.253Z,99.99
2017-11-22T15:04:47.237Z,99.99
2017-11-22T15:06:00.197Z,99.99
2017-11-22T15:07:12.286Z,99.99
2017-11-22T15:08:25.296Z,99.99
2017-11-22T15:09:38.314Z,99.99
2017-11-22T15:10:51.325Z,99.99
2017-11-22T15:12:04.296Z,99.99
2017-11-22T15:13:16.840Z,99.99
2017-11-22T15:14:29.355Z,99.99
2017-11-22T15:15:41.940Z,99.99
2017-11-22T15:16:54.881Z,99.99
2017-11-22T15:18:07.877Z,99.99
2017-11-22T15:19:20.456Z,99.99
2017-11-22T15:20:32.987Z,99.99
2017-11-22T15:21:45.515Z,99.99
2017-11-22T15:22:57.384Z,99.99
2017-11-22T15:24:10.400Z,99.99
2017-11-22T15:25:23.377Z,99.99
2017-11-22T15:26:36.368Z,99.99
2017-11-22T15:27:49.361Z,99.69
2017-11-22T15:29:01.871Z,99.99
2017-11-22T15:30:14.945Z,99.99
2017-11-22T15:31:27.486Z,99.99
2017-11-22T15:32:39.575Z,99.99
2017-11-22T15:33:52.793Z,99.99
2017-11-22T15:35:04.870Z,99.99
2017-11-22T15:36:18.134Z,99.99
2017-11-22T15:37:31.162Z,99.99
2017-11-22T15:38:43.940Z,98.82
2017-11-22T15:39:56.485Z,97.72
2017-11-22T15:41:09.492Z,97.62